Hamilton, Canada
Current Conditions -  °F | °C
As of 5:00 AM on Saturday 22 Nov 2014 (Local Time) from CYHM Reporting Station
Overcast Overcast  
Wind Chill: 16°   Ceiling: 14000
Heat Index: 28°   Visibility: 15mi
Dew Point: 21°   Wind: 18mph
Humidity: 74%   Direction: 210°SSW
Pressure: 30.21"   Gusts: NA
Location:  43.26°N, 79.89°W
Report Text: CYHM 221000Z 21016KT 15SM OVC140 M02/M06 A3021 RMK AC8 SLP244
Loading
Personal Weather Stations






























Interactive Weather Map New forecast layout! Learn more

10-Day Weather Forecast

Advertisements
Track Severe Weather on mobile